createdAt,value
2018-11-25T00:01:10.952Z,3.60
2018-11-25T00:03:44.553Z,3.70
2018-11-25T00:06:18.113Z,3.70
2018-11-25T00:08:51.703Z,3.60
2018-11-25T00:11:25.285Z,3.60
2018-11-25T00:13:58.849Z,3.60
2018-11-25T00:16:32.523Z,3.60
2018-11-25T00:19:06.781Z,3.60
2018-11-25T00:21:40.344Z,3.60
2018-11-25T00:24:13.932Z,3.60
2018-11-25T00:26:47.525Z,3.60
2018-11-25T00:29:21.194Z,3.70
2018-11-25T00:31:54.903Z,3.60
2018-11-25T00:34:28.501Z,3.60
2018-11-25T00:37:02.057Z,3.60
2018-11-25T00:39:35.651Z,3.60
2018-11-25T00:42:09.227Z,3.60
2018-11-25T00:44:42.847Z,3.70
2018-11-25T00:47:16.431Z,3.70
2018-11-25T00:49:50.057Z,3.70
2018-11-25T00:52:23.653Z,3.70
2018-11-25T00:54:57.360Z,3.70
2018-11-25T00:57:30.945Z,3.70
2018-11-25T01:00:06.435Z,3.70
2018-11-25T01:02:40.071Z,3.70
2018-11-25T01:05:14.406Z,3.70
2018-11-25T01:07:48.380Z,3.70
2018-11-25T01:10:21.967Z,3.70
2018-11-25T01:12:55.590Z,3.70
2018-11-25T01:15:29.186Z,3.70
2018-11-25T01:18:02.738Z,3.70
2018-11-25T01:20:36.347Z,3.60
2018-11-25T01:23:10.283Z,3.60
2018-11-25T01:25:43.908Z,3.60
2018-11-25T01:28:17.495Z,3.60
2018-11-25T01:30:51.111Z,3.60
2018-11-25T01:33:24.679Z,3.60
2018-11-25T01:35:58.326Z,3.60
2018-11-25T01:38:31.912Z,3.70
2018-11-25T01:41:05.799Z,3.70
2018-11-25T01:43:39.379Z,3.70
2018-11-25T01:46:13.002Z,3.70
2018-11-25T01:48:46.592Z,3.70
2018-11-25T01:51:20.218Z,3.70
2018-11-25T01:53:53.817Z,3.70
2018-11-25T01:56:27.418Z,3.70
2018-11-25T01:59:00.999Z,3.60
2018-11-25T02:01:34.571Z,3.60
2018-11-25T02:04:08.214Z,3.60
2018-11-25T02:06:41.844Z,3.60
2018-11-25T02:09:15.723Z,3.60
2018-11-25T02:11:49.667Z,3.60
2018-11-25T02:14:23.222Z,3.60
2018-11-25T02:16:56.838Z,3.60
2018-11-25T02:19:30.474Z,3.60
2018-11-25T02:22:04.072Z,3.60
2018-11-25T02:24:37.659Z,3.60
2018-11-25T02:27:11.254Z,3.50
2018-11-25T02:29:44.850Z,3.50
2018-11-25T02:32:18.486Z,3.50
2018-11-25T02:34:52.070Z,3.60
2018-11-25T02:37:25.682Z,3.60
2018-11-25T02:39:59.269Z,3.60
2018-11-25T02:42:32.971Z,3.50
2018-11-25T02:45:09.614Z,3.50
2018-11-25T02:47:43.634Z,3.50
2018-11-25T02:50:32.646Z,3.60
2018-11-25T02:53:07.422Z,3.60
2018-11-25T02:55:41.006Z,3.60
2018-11-25T02:58:14.594Z,3.60
2018-11-25T03:00:48.226Z,3.60
2018-11-25T03:03:21.854Z,3.60
2018-11-25T03:05:55.416Z,3.50
2018-11-25T03:08:29.078Z,3.50
2018-11-25T03:11:02.680Z,3.50
2018-11-25T03:13:36.285Z,3.50
2018-11-25T03:16:09.848Z,3.50
2018-11-25T03:18:43.438Z,3.50
2018-11-25T03:21:17.019Z,3.50
2018-11-25T03:23:50.615Z,3.50
2018-11-25T03:26:24.193Z,3.50
2018-11-25T03:28:57.845Z,3.50
2018-11-25T03:31:31.422Z,3.50
2018-11-25T03:34:05.586Z,3.50
2018-11-25T03:36:39.156Z,3.60
2018-11-25T03:39:12.759Z,3.60
2018-11-25T03:41:46.577Z,3.60
2018-11-25T03:44:20.478Z,3.50
2018-11-25T03:46:54.071Z,3.50
2018-11-25T03:49:27.697Z,3.50
2018-11-25T03:52:01.281Z,3.50
2018-11-25T03:54:34.887Z,3.40
2018-11-25T03:57:08.428Z,3.40
2018-11-25T03:59:42.029Z,3.40
2018-11-25T04:02:15.625Z,3.40
2018-11-25T04:04:49.220Z,3.40
2018-11-25T04:07:22.773Z,3.40
2018-11-25T04:09:56.741Z,3.40
2018-11-25T04:12:30.306Z,3.40
2018-11-25T04:15:04.154Z,3.40
2018-11-25T04:17:37.786Z,3.30
2018-11-25T04:20:16.135Z,3.40
2018-11-25T04:22:50.473Z,3.40
2018-11-25T04:25:24.052Z,3.40
2018-11-25T04:27:57.593Z,3.40
2018-11-25T04:30:31.239Z,3.40
2018-11-25T04:33:04.893Z,3.40
2018-11-25T04:35:38.540Z,3.40
2018-11-25T04:38:12.156Z,3.40
2018-11-25T04:40:45.796Z,3.40
2018-11-25T04:43:19.412Z,3.40
2018-11-25T04:45:53.006Z,3.50
2018-11-25T04:48:26.585Z,3.40
2018-11-25T04:51:00.161Z,3.40
2018-11-25T04:53:33.724Z,3.40
2018-11-25T04:56:07.330Z,3.40
2018-11-25T04:58:40.911Z,3.50
2018-11-25T05:01:14.782Z,3.50
2018-11-25T05:03:48.344Z,3.50
2018-11-25T05:06:21.928Z,3.50
2018-11-25T05:08:55.495Z,3.60
2018-11-25T05:11:29.093Z,3.60
2018-11-25T05:14:02.658Z,3.60
2018-11-25T05:16:36.317Z,3.60
2018-11-25T05:19:09.916Z,3.60
2018-11-25T05:21:43.526Z,3.60
2018-11-25T05:24:17.113Z,3.60
2018-11-25T05:26:50.713Z,3.60
2018-11-25T05:29:24.422Z,3.60
2018-11-25T05:31:57.988Z,3.60
2018-11-25T05:34:31.568Z,3.60
2018-11-25T05:37:05.148Z,3.60
2018-11-25T05:39:38.715Z,3.60
2018-11-25T05:42:12.302Z,3.50
2018-11-25T05:44:45.860Z,3.50
2018-11-25T05:47:19.435Z,3.50
2018-11-25T05:49:52.999Z,3.50
2018-11-25T05:52:26.585Z,3.50
2018-11-25T05:55:00.182Z,3.50
2018-11-25T05:57:33.822Z,3.50
2018-11-25T06:00:14.205Z,3.60
2018-11-25T06:02:47.827Z,3.50
2018-11-25T06:05:21.382Z,3.50
2018-11-25T06:07:55.067Z,3.60
2018-11-25T06:10:28.622Z,3.60
2018-11-25T06:13:02.214Z,3.60
2018-11-25T06:15:35.826Z,3.60
2018-11-25T06:18:09.411Z,3.60
2018-11-25T06:20:43.009Z,3.60
2018-11-25T06:23:16.611Z,3.60
2018-11-25T06:25:50.170Z,3.60
2018-11-25T06:28:23.772Z,3.60
2018-11-25T06:30:57.348Z,3.60
2018-11-25T06:33:30.962Z,3.60
2018-11-25T06:36:04.602Z,3.60
2018-11-25T06:38:38.220Z,3.60
2018-11-25T06:41:11.803Z,3.60
2018-11-25T06:43:45.411Z,3.50
2018-11-25T06:46:19.027Z,3.50
2018-11-25T06:48:55.051Z,3.60
2018-11-25T06:51:26.326Z,3.50
2018-11-25T06:53:59.929Z,3.50
2018-11-25T06:56:33.511Z,3.60
2018-11-25T06:59:07.258Z,3.60
2018-11-25T07:01:40.850Z,3.60
2018-11-25T07:04:14.649Z,3.60
2018-11-25T07:06:48.211Z,3.60
2018-11-25T07:09:21.775Z,3.60
2018-11-25T07:11:55.305Z,3.60
2018-11-25T07:14:28.910Z,3.60
2018-11-25T07:17:02.492Z,3.60
2018-11-25T07:19:36.089Z,3.70
2018-11-25T07:22:09.894Z,3.70
2018-11-25T07:24:43.474Z,3.70
2018-11-25T07:27:17.127Z,3.80
2018-11-25T07:29:50.713Z,3.70
2018-11-25T07:32:24.343Z,3.80
2018-11-25T07:34:58.648Z,3.80
2018-11-25T07:37:32.244Z,3.80
2018-11-25T07:40:10.477Z,3.80
2018-11-25T07:42:44.439Z,3.90
2018-11-25T07:45:19.992Z,3.90
2018-11-25T07:47:53.597Z,3.90
2018-11-25T07:53:01.615Z,4.00
2018-11-25T07:55:35.207Z,4.00
2018-11-25T07:58:08.810Z,4.00
2018-11-25T08:00:42.412Z,3.90
2018-11-25T08:03:16.924Z,3.90
2018-11-25T08:05:50.540Z,4.00
2018-11-25T08:08:24.087Z,3.90
2018-11-25T08:10:57.707Z,3.90
2018-11-25T08:13:31.321Z,3.90
2018-11-25T08:16:05.167Z,4.00
2018-11-25T08:18:38.744Z,4.00
2018-11-25T08:21:12.366Z,4.00
2018-11-25T08:23:45.965Z,4.00
2018-11-25T08:26:19.557Z,4.00
2018-11-25T08:28:53.214Z,4.00
2018-11-25T08:31:27.549Z,4.10
2018-11-25T08:34:01.133Z,4.10
2018-11-25T08:36:34.754Z,4.10
2018-11-25T08:39:09.126Z,4.10
2018-11-25T08:41:42.740Z,4.10
2018-11-25T08:44:16.628Z,4.20
2018-11-25T08:46:50.490Z,4.20
2018-11-25T08:49:24.110Z,4.30
2018-11-25T08:51:57.797Z,4.30
2018-11-25T08:54:31.355Z,4.30
2018-11-25T08:57:04.968Z,4.30
2018-11-25T08:59:38.544Z,4.40
2018-11-25T09:02:12.116Z,4.40
2018-11-25T09:04:45.718Z,4.50
2018-11-25T09:07:19.304Z,4.50
2018-11-25T09:09:52.872Z,4.50
2018-11-25T09:12:26.529Z,4.70
2018-11-25T09:15:00.157Z,4.70
2018-11-25T09:17:33.750Z,4.70
2018-11-25T09:20:09.896Z,4.80
2018-11-25T09:22:43.952Z,4.80
2018-11-25T09:25:19.681Z,4.80
2018-11-25T09:27:53.271Z,4.90
2018-11-25T09:30:27.969Z,4.90
2018-11-25T09:33:01.602Z,5.00
2018-11-25T09:35:35.224Z,5.10
2018-11-25T09:38:08.811Z,5.20
2018-11-25T09:40:42.683Z,5.20
2018-11-25T09:43:16.336Z,5.20
2018-11-25T09:45:49.924Z,5.40
2018-11-25T09:48:23.516Z,5.30
2018-11-25T09:50:57.128Z,5.40
2018-11-25T09:53:31.335Z,5.40
2018-11-25T09:56:05.695Z,5.50
2018-11-25T09:58:39.330Z,5.50
2018-11-25T10:01:12.971Z,5.40
2018-11-25T10:03:46.571Z,5.50
2018-11-25T10:06:20.128Z,5.40
2018-11-25T10:08:53.772Z,5.40
2018-11-25T10:11:27.387Z,5.30
2018-11-25T10:14:00.972Z,5.40
2018-11-25T10:16:34.578Z,5.30
2018-11-25T10:19:08.199Z,5.40
2018-11-25T10:21:41.882Z,5.40
2018-11-25T10:24:15.537Z,5.40
2018-11-25T10:26:49.239Z,5.40
2018-11-25T10:29:23.426Z,5.50
2018-11-25T10:31:57.199Z,5.60
2018-11-25T10:34:30.814Z,5.60
2018-11-25T10:37:04.444Z,5.60
2018-11-25T10:39:38.027Z,5.70
2018-11-25T10:42:12.276Z,5.70
2018-11-25T10:44:45.855Z,5.80
2018-11-25T10:47:19.482Z,5.80
2018-11-25T10:49:53.481Z,5.90
2018-11-25T10:52:27.091Z,6.00
2018-11-25T10:55:00.647Z,6.00
2018-11-25T10:57:34.266Z,6.00
2018-11-25T11:00:39.899Z,5.90
2018-11-25T11:03:19.165Z,5.90
2018-11-25T11:05:58.622Z,5.90
2018-11-25T11:08:32.523Z,6.00
2018-11-25T11:11:06.944Z,6.00
2018-11-25T11:13:40.564Z,6.00
2018-11-25T11:16:14.157Z,6.00
2018-11-25T11:18:47.769Z,6.00
2018-11-25T11:21:21.386Z,6.10
2018-11-25T11:23:55.008Z,6.10
2018-11-25T11:26:28.624Z,6.20
2018-11-25T11:29:02.259Z,6.20
2018-11-25T11:31:35.883Z,6.20
2018-11-25T11:34:09.546Z,6.20
2018-11-25T11:36:43.090Z,6.20
2018-11-25T11:39:16.678Z,6.30
2018-11-25T11:41:50.241Z,6.30
2018-11-25T11:44:23.860Z,6.30
2018-11-25T11:46:57.422Z,6.30
2018-11-25T11:49:31.082Z,6.40
2018-11-25T11:52:04.685Z,6.40
2018-11-25T11:54:38.272Z,6.50
2018-11-25T11:57:11.845Z,6.40
2018-11-25T11:59:45.418Z,6.50
2018-11-25T12:02:18.990Z,6.80
2018-11-25T12:04:52.602Z,6.70
2018-11-25T12:07:26.182Z,6.70
2018-11-25T12:09:59.799Z,6.60
2018-11-25T12:12:33.378Z,6.70
2018-11-25T12:15:10.936Z,6.80
2018-11-25T12:17:44.499Z,6.80
2018-11-25T12:20:21.175Z,6.90
2018-11-25T12:22:52.615Z,7.00
2018-11-25T12:25:26.261Z,7.80
2018-11-25T12:27:59.804Z,8.20
2018-11-25T12:30:33.397Z,8.50
2018-11-25T12:33:07.047Z,8.50
2018-11-25T12:35:40.618Z,8.70
2018-11-25T12:38:14.184Z,8.50
2018-11-25T12:40:47.820Z,8.30
2018-11-25T12:43:21.338Z,8.40
2018-11-25T12:45:54.919Z,8.60
2018-11-25T12:48:28.704Z,8.70
2018-11-25T12:51:02.459Z,8.70
2018-11-25T12:53:36.049Z,8.30
2018-11-25T12:56:09.652Z,8.40
2018-11-25T12:58:43.239Z,8.00
2018-11-25T13:01:17.060Z,8.00
2018-11-25T13:03:50.619Z,8.00
2018-11-25T13:06:24.209Z,7.80
2018-11-25T13:08:57.740Z,7.80
2018-11-25T13:11:31.389Z,8.00
2018-11-25T13:14:05.689Z,8.00
2018-11-25T13:16:39.292Z,7.90
2018-11-25T13:19:12.863Z,7.50
2018-11-25T13:21:46.448Z,7.40
2018-11-25T13:24:20.028Z,7.20
2018-11-25T13:26:53.641Z,7.20
2018-11-25T13:29:27.238Z,7.20
2018-11-25T13:32:00.867Z,7.10
2018-11-25T13:34:34.476Z,7.00
2018-11-25T13:37:08.060Z,6.90
2018-11-25T13:39:41.617Z,6.80
2018-11-25T13:42:16.214Z,6.80
2018-11-25T13:44:47.769Z,6.80
2018-11-25T13:47:21.373Z,6.70
2018-11-25T13:49:54.981Z,6.00
2018-11-25T13:52:28.597Z,6.60
2018-11-25T13:55:02.195Z,6.50
2018-11-25T13:57:35.805Z,6.40
2018-11-25T14:00:18.361Z,6.30
2018-11-25T14:02:52.028Z,6.20
2018-11-25T14:05:25.631Z,6.10
2018-11-25T14:08:00.279Z,6.20
2018-11-25T14:10:34.667Z,6.10
2018-11-25T14:13:08.330Z,6.10
2018-11-25T14:15:41.911Z,6.10
2018-11-25T14:18:15.736Z,6.10
2018-11-25T14:20:49.363Z,6.10
2018-11-25T14:23:22.970Z,6.10
2018-11-25T14:25:57.948Z,6.10
2018-11-25T14:28:31.632Z,6.10
2018-11-25T14:31:05.859Z,6.10
2018-11-25T14:33:39.559Z,6.00
2018-11-25T14:36:13.279Z,6.00
2018-11-25T14:38:46.913Z,6.00
2018-11-25T14:41:20.911Z,6.00
2018-11-25T14:43:54.486Z,6.00
2018-11-25T14:46:28.039Z,6.00
2018-11-25T14:49:01.847Z,5.90
2018-11-25T14:51:35.423Z,5.90
2018-11-25T14:54:08.995Z,5.90
2018-11-25T14:56:42.555Z,5.90
2018-11-25T14:59:16.251Z,5.80
2018-11-25T15:01:49.814Z,5.80
2018-11-25T15:04:23.695Z,5.80
2018-11-25T15:06:57.287Z,5.80
2018-11-25T15:09:31.467Z,5.70
2018-11-25T15:12:05.575Z,5.80
2018-11-25T15:14:39.284Z,5.70
2018-11-25T15:17:12.909Z,5.70
2018-11-25T15:19:46.630Z,5.70
2018-11-25T15:22:20.199Z,5.70
2018-11-25T15:24:53.819Z,5.70
2018-11-25T15:27:27.430Z,5.70
2018-11-25T15:30:01.136Z,5.80
2018-11-25T15:32:34.715Z,5.70
2018-11-25T15:35:09.783Z,5.70
2018-11-25T15:37:47.843Z,5.70
2018-11-25T15:40:24.838Z,5.70
2018-11-25T15:42:58.569Z,5.70
2018-11-25T15:45:33.878Z,5.80
2018-11-25T15:48:09.836Z,5.80
2018-11-25T15:50:44.330Z,5.70
2018-11-25T15:53:18.132Z,5.70
2018-11-25T15:55:57.543Z,5.70
2018-11-25T15:58:31.235Z,5.70
2018-11-25T16:01:05.584Z,5.70
2018-11-25T16:03:39.226Z,5.70
2018-11-25T16:06:18.453Z,5.70
2018-11-25T16:08:52.068Z,5.60
2018-11-25T16:11:25.720Z,5.60
2018-11-25T16:13:59.347Z,5.60
2018-11-25T16:16:32.910Z,5.60
2018-11-25T16:21:39.870Z,5.50
2018-11-25T16:24:13.468Z,5.60
2018-11-25T16:26:47.038Z,5.50
2018-11-25T16:29:24.870Z,5.50
2018-11-25T16:31:58.415Z,5.50
2018-11-25T16:34:32.031Z,5.50
2018-11-25T16:37:05.714Z,5.50
2018-11-25T16:39:39.341Z,5.50
2018-11-25T16:42:12.925Z,5.50
2018-11-25T16:44:46.597Z,5.40
2018-11-25T16:47:20.259Z,5.40
2018-11-25T16:49:53.846Z,5.40
2018-11-25T16:52:27.417Z,5.40
2018-11-25T16:55:01.017Z,5.40
2018-11-25T16:57:34.601Z,5.30
2018-11-25T17:00:12.269Z,5.30
2018-11-25T17:02:45.845Z,5.30
2018-11-25T17:05:22.379Z,5.30
2018-11-25T17:08:02.018Z,5.20
2018-11-25T17:10:35.602Z,5.30
2018-11-25T17:13:09.195Z,5.30
2018-11-25T17:15:42.852Z,5.30
2018-11-25T17:18:16.420Z,5.30
2018-11-25T17:20:50.029Z,5.40
2018-11-25T17:23:23.904Z,5.30
2018-11-25T17:25:57.496Z,5.30
2018-11-25T17:28:31.104Z,5.30
2018-11-25T17:31:04.748Z,5.40
2018-11-25T17:33:38.347Z,5.30
2018-11-25T17:36:11.948Z,5.40
2018-11-25T17:38:45.544Z,5.40
2018-11-25T17:41:19.158Z,5.30
2018-11-25T17:43:52.945Z,5.30
2018-11-25T17:46:26.846Z,5.30
2018-11-25T17:49:00.725Z,5.30
2018-11-25T17:51:34.328Z,5.30
2018-11-25T17:54:07.903Z,5.40
2018-11-25T17:56:41.532Z,5.40
2018-11-25T17:59:15.119Z,5.50
2018-11-25T18:01:48.767Z,5.50
2018-11-25T18:04:22.343Z,5.50
2018-11-25T18:06:55.996Z,5.60
2018-11-25T18:09:29.564Z,5.60
2018-11-25T18:12:03.155Z,5.50
2018-11-25T18:14:36.740Z,5.50
2018-11-25T18:17:10.346Z,5.50
2018-11-25T18:19:43.938Z,5.50
2018-11-25T18:22:21.137Z,5.50
2018-11-25T18:24:54.723Z,5.50
2018-11-25T18:27:28.438Z,5.50
2018-11-25T18:30:02.048Z,5.50
2018-11-25T18:32:36.017Z,5.60
2018-11-25T18:35:10.304Z,5.50
2018-11-25T18:37:43.941Z,5.50
2018-11-25T18:40:17.708Z,5.60
2018-11-25T18:42:51.919Z,5.50
2018-11-25T18:45:26.543Z,5.50
2018-11-25T18:48:00.241Z,5.50
2018-11-25T18:50:33.928Z,5.50
2018-11-25T18:53:08.723Z,5.50
2018-11-25T18:55:41.207Z,5.50
2018-11-25T18:58:14.931Z,5.50
2018-11-25T19:01:27.811Z,5.60
2018-11-25T19:04:01.541Z,5.60
2018-11-25T19:06:35.136Z,5.60
2018-11-25T19:09:09.880Z,5.60
2018-11-25T19:11:43.511Z,5.60
2018-11-25T19:14:17.104Z,5.60
2018-11-25T19:16:50.695Z,5.60
2018-11-25T19:19:24.304Z,5.50
2018-11-25T19:21:57.875Z,5.30
2018-11-25T19:24:31.567Z,5.50
2018-11-25T19:27:05.855Z,5.50
2018-11-25T19:29:39.535Z,5.50
2018-11-25T19:32:13.123Z,5.40
2018-11-25T19:34:46.727Z,5.40
2018-11-25T19:37:20.334Z,5.40
2018-11-25T19:39:53.915Z,5.40
2018-11-25T19:42:27.514Z,5.40
2018-11-25T19:45:01.206Z,5.40
2018-11-25T19:47:34.828Z,5.30
2018-11-25T19:50:14.648Z,5.20
2018-11-25T19:52:48.213Z,5.20
2018-11-25T19:55:21.876Z,5.10
2018-11-25T19:57:55.471Z,5.10
2018-11-25T20:00:29.087Z,5.10
2018-11-25T20:03:03.067Z,5.00
2018-11-25T20:05:36.730Z,5.00
2018-11-25T20:08:10.326Z,5.00
2018-11-25T20:10:43.966Z,5.00
2018-11-25T20:13:17.553Z,4.90
2018-11-25T20:15:51.134Z,4.90
2018-11-25T20:18:25.126Z,4.90
2018-11-25T20:21:03.840Z,4.90
2018-11-25T20:23:37.435Z,5.00
2018-11-25T20:26:11.528Z,5.00
2018-11-25T20:28:45.167Z,5.00
2018-11-25T20:31:18.830Z,4.90
2018-11-25T20:33:53.502Z,4.90
2018-11-25T20:36:27.245Z,4.90
2018-11-25T20:39:06.230Z,4.90
2018-11-25T20:41:39.869Z,4.90
2018-11-25T20:44:13.446Z,4.80
2018-11-25T20:46:52.293Z,4.80
2018-11-25T20:49:25.947Z,4.80
2018-11-25T20:52:04.809Z,4.70
2018-11-25T20:54:38.379Z,4.80
2018-11-25T20:57:12.013Z,4.90
2018-11-25T20:59:45.567Z,4.80
2018-11-25T21:02:20.372Z,4.70
2018-11-25T21:04:53.056Z,4.60
2018-11-25T21:07:26.659Z,4.50
2018-11-25T21:10:00.312Z,4.50
2018-11-25T21:12:34.494Z,4.40
2018-11-25T21:15:10.344Z,4.40
2018-11-25T21:17:43.937Z,4.30
2018-11-25T21:20:21.133Z,4.20
2018-11-25T21:22:54.716Z,4.10
2018-11-25T21:25:28.693Z,4.10
2018-11-25T21:28:02.297Z,4.10
2018-11-25T21:30:35.895Z,4.00
2018-11-25T21:33:09.504Z,4.00
2018-11-25T21:35:43.322Z,4.00
2018-11-25T21:38:16.909Z,4.00
2018-11-25T21:40:50.530Z,4.00
2018-11-25T21:43:24.112Z,3.90
2018-11-25T21:45:57.724Z,4.00
2018-11-25T21:48:31.362Z,3.80
2018-11-25T21:51:05.369Z,3.80
2018-11-25T21:53:39.036Z,3.80
2018-11-25T21:56:14.438Z,3.90
2018-11-25T21:58:46.251Z,4.10
2018-11-25T22:01:19.849Z,4.10
2018-11-25T22:03:53.444Z,4.10
2018-11-25T22:06:27.028Z,4.20
2018-11-25T22:09:00.615Z,4.20
2018-11-25T22:11:34.169Z,4.20
2018-11-25T22:14:07.812Z,4.20
2018-11-25T22:16:41.735Z,4.20
2018-11-25T22:19:15.343Z,4.20
2018-11-25T22:21:48.950Z,4.10
2018-11-25T22:24:22.562Z,4.10
2018-11-25T22:26:56.143Z,4.10
2018-11-25T22:29:29.730Z,3.90
2018-11-25T22:32:03.306Z,3.90
2018-11-25T22:34:36.871Z,3.90
2018-11-25T22:37:10.980Z,3.80
2018-11-25T22:39:44.576Z,3.70
2018-11-25T22:42:18.135Z,3.50
2018-11-25T22:44:51.747Z,3.50
2018-11-25T22:47:25.332Z,3.50
2018-11-25T22:49:58.895Z,3.60
2018-11-25T22:52:32.495Z,3.70
2018-11-25T22:55:09.059Z,3.80
2018-11-25T22:57:42.644Z,3.80
2018-11-25T23:00:20.787Z,3.70
2018-11-25T23:02:54.356Z,3.70
2018-11-25T23:05:39.099Z,3.60
2018-11-25T23:08:12.720Z,3.60
2018-11-25T23:10:46.333Z,3.80
2018-11-25T23:13:20.331Z,3.90
2018-11-25T23:15:53.936Z,4.10
2018-11-25T23:18:27.598Z,4.00
2018-11-25T23:21:01.252Z,4.00
2018-11-25T23:23:34.858Z,4.00
2018-11-25T23:26:08.474Z,3.80
2018-11-25T23:28:42.081Z,3.80
2018-11-25T23:31:15.691Z,3.80
2018-11-25T23:33:49.570Z,3.80
2018-11-25T23:36:23.153Z,3.70
2018-11-25T23:38:56.786Z,3.60
2018-11-25T23:41:30.431Z,3.60
2018-11-25T23:44:04.517Z,3.60
2018-11-25T23:46:38.134Z,3.70
2018-11-25T23:49:11.691Z,3.70
2018-11-25T23:51:45.947Z,3.70
2018-11-25T23:54:19.547Z,3.70
2018-11-25T23:56:53.197Z,3.70
2018-11-25T23:59:26.799Z,3.60
